createdAt,value
2024-03-12T00:02:32.904Z,99504.25
2024-03-12T00:05:09.627Z,99507.17
2024-03-12T00:07:40.137Z,99505.11
2024-03-12T00:10:16.286Z,99504.27
2024-03-12T00:12:49.956Z,99505.64
2024-03-12T00:15:22.767Z,99505.48
2024-03-12T00:17:55.647Z,99507.02
2024-03-12T00:20:31.469Z,99506.33
2024-03-12T00:23:03.050Z,99508.03
2024-03-12T00:25:33.575Z,99509.74
2024-03-12T00:28:07.054Z,99509.06
2024-03-12T00:30:42.180Z,99509.41
2024-03-12T00:33:13.074Z,99507.34
2024-03-12T00:35:47.197Z,99511.27
2024-03-12T00:38:19.308Z,99511.10
2024-03-12T00:40:51.713Z,99509.72
2024-03-12T00:43:22.182Z,99512.13
2024-03-12T00:45:54.350Z,99512.64
2024-03-12T00:48:26.532Z,99516.08
2024-03-12T00:50:57.076Z,99520.04
2024-03-12T00:53:27.711Z,99517.11
2024-03-12T00:55:59.461Z,99520.03
2024-03-12T00:58:29.989Z,99515.39
2024-03-12T01:01:00.582Z,99515.73
2024-03-12T01:03:31.564Z,99515.55
2024-03-12T01:06:02.859Z,99512.46
2024-03-12T01:08:34.992Z,99511.42
2024-03-12T01:11:06.830Z,99511.09
2024-03-12T01:13:35.876Z,99510.40
2024-03-12T01:16:07.653Z,99511.08
2024-03-12T01:18:37.090Z,99508.34
2024-03-12T01:21:09.571Z,99508.16
2024-03-12T01:23:41.218Z,99506.62
2024-03-12T01:26:11.705Z,99510.08
2024-03-12T01:28:42.196Z,99507.84
2024-03-12T01:31:12.775Z,99506.98
2024-03-12T01:33:43.542Z,99510.23
2024-03-12T01:36:21.930Z,99505.08
2024-03-12T01:38:55.850Z,99505.94
2024-03-12T01:41:27.784Z,99502.17
2024-03-12T01:44:00.707Z,99500.63
2024-03-12T01:46:35.362Z,99500.63
2024-03-12T01:49:06.974Z,99500.11
2024-03-12T01:51:38.343Z,99503.04
2024-03-12T01:54:10.126Z,99504.40
2024-03-12T01:56:41.100Z,99506.45
2024-03-12T01:59:13.225Z,99503.70
2024-03-12T02:01:43.759Z,99505.94
2024-03-12T02:04:16.081Z,99504.56
2024-03-12T02:06:47.651Z,99503.02
2024-03-12T02:09:20.568Z,99505.25
2024-03-12T02:11:52.351Z,99507.47
2024-03-12T02:14:22.821Z,99505.58
2024-03-12T02:16:53.285Z,99503.51
2024-03-12T02:19:24.485Z,99505.90
2024-03-12T02:21:54.965Z,99506.25
2024-03-12T02:24:25.458Z,99508.15
2024-03-12T02:26:55.933Z,99511.06
2024-03-12T02:29:26.480Z,99511.73
2024-03-12T02:31:57.761Z,99518.59
2024-03-12T02:34:30.377Z,99518.77
2024-03-12T02:37:03.386Z,99520.48
2024-03-12T02:39:34.118Z,99513.43
2024-03-12T02:42:04.827Z,99514.61
2024-03-12T02:44:35.350Z,99512.23
2024-03-12T02:47:05.995Z,99513.23
2024-03-12T02:49:36.870Z,99514.08
2024-03-12T02:52:07.521Z,99514.07
2024-03-12T02:54:38.048Z,99510.11
2024-03-12T02:57:10.245Z,99515.08
2024-03-12T02:59:40.800Z,99516.95
2024-03-12T03:02:13.938Z,99513.88
2024-03-12T03:04:44.409Z,99512.15
2024-03-12T03:07:18.335Z,99512.31
2024-03-12T03:09:48.978Z,99512.64
2024-03-12T03:12:19.506Z,99514.69
2024-03-12T03:14:50.047Z,99518.11
2024-03-12T03:17:21.792Z,99514.52
2024-03-12T03:19:52.299Z,99522.91
2024-03-12T03:22:22.744Z,99525.13
2024-03-12T03:24:53.215Z,99527.37
2024-03-12T03:27:23.805Z,99528.05
2024-03-12T03:29:58.005Z,99528.77
2024-03-12T03:32:29.481Z,99529.95
2024-03-12T03:35:00.122Z,99530.64
2024-03-12T03:37:34.193Z,99533.06
2024-03-12T03:40:11.005Z,99534.45
2024-03-12T03:42:43.143Z,99539.59
2024-03-12T03:45:12.359Z,99545.06
2024-03-12T03:47:42.857Z,99546.94
2024-03-12T03:50:13.996Z,99547.27
2024-03-12T03:52:45.052Z,99549.84
2024-03-12T03:55:15.602Z,99545.20
2024-03-12T03:57:46.518Z,99547.40
2024-03-12T04:00:18.208Z,99549.27
2024-03-12T04:02:49.353Z,99551.69
2024-03-12T04:05:20.754Z,99554.41
2024-03-12T04:07:51.974Z,99551.30
2024-03-12T04:10:23.572Z,99551.13
2024-03-12T04:12:57.222Z,99552.83
2024-03-12T04:15:30.337Z,99554.36
2024-03-12T04:18:01.580Z,99555.73
2024-03-12T04:20:32.119Z,99553.02
2024-03-12T04:23:03.215Z,99548.23
2024-03-12T04:25:33.714Z,99550.44
2024-03-12T04:28:04.291Z,99553.69
2024-03-12T04:30:35.883Z,99557.28
2024-03-12T04:33:07.299Z,99560.71
2024-03-12T04:35:37.800Z,99562.94
2024-03-12T04:38:09.338Z,99566.52
2024-03-12T04:40:39.916Z,99571.83
2024-03-12T04:43:10.436Z,99573.34
2024-03-12T04:45:42.140Z,99574.52
2024-03-12T04:48:12.955Z,99578.95
2024-03-12T04:50:43.463Z,99579.73
2024-03-12T04:53:13.909Z,99580.92
2024-03-12T04:55:44.407Z,99587.77
2024-03-12T04:58:14.917Z,99589.66
2024-03-12T05:00:45.508Z,99589.99
2024-03-12T05:03:15.998Z,99591.16
2024-03-12T05:05:46.506Z,99591.83
2024-03-12T05:08:17.073Z,99593.66
2024-03-12T05:10:47.623Z,99594.34
2024-03-12T05:13:18.642Z,99596.52
2024-03-12T05:15:49.250Z,99594.95
2024-03-12T05:18:19.774Z,99598.18
2024-03-12T05:20:52.321Z,99598.54
2024-03-12T05:23:24.518Z,99601.29
2024-03-12T05:25:54.861Z,99605.58
2024-03-12T05:28:25.636Z,99610.36
2024-03-12T05:30:57.872Z,99608.63
2024-03-12T05:33:31.117Z,99612.39
2024-03-12T05:36:10.703Z,99616.66
2024-03-12T05:38:56.558Z,99619.05
2024-03-12T05:41:29.667Z,99623.28
2024-03-12T05:44:17.534Z,99625.67
2024-03-12T05:47:05.962Z,99628.39
2024-03-12T05:49:36.804Z,99629.91
2024-03-12T05:52:07.521Z,99630.73
2024-03-12T05:54:38.121Z,99631.23
2024-03-12T05:57:08.716Z,99631.53
2024-03-12T05:59:39.208Z,99631.83
2024-03-12T06:02:09.982Z,99634.20
2024-03-12T06:04:40.688Z,99634.85
2024-03-12T06:07:13.697Z,99638.77
2024-03-12T06:09:44.500Z,99641.98
2024-03-12T06:12:15.059Z,99644.89
2024-03-12T06:14:45.508Z,99648.67
2024-03-12T06:17:16.074Z,99651.10
2024-03-12T06:19:46.543Z,99649.73
2024-03-12T06:22:18.307Z,99649.21
2024-03-12T06:24:49.418Z,99654.36
2024-03-12T06:27:20.421Z,99655.52
2024-03-12T06:29:53.204Z,99659.28
2024-03-12T06:32:26.259Z,99662.70
2024-03-12T06:34:57.824Z,99664.06
2024-03-12T06:37:29.066Z,99668.34
2024-03-12T06:40:00.151Z,99666.98
2024-03-12T06:42:31.510Z,99672.47
2024-03-12T06:45:03.618Z,99672.14
2024-03-12T06:47:38.266Z,99675.57
2024-03-12T06:50:11.399Z,99675.06
2024-03-12T06:52:48.147Z,99675.73
2024-03-12T06:55:22.644Z,99679.80
2024-03-12T06:57:56.380Z,99683.55
2024-03-12T07:00:33.621Z,99685.78
2024-03-12T07:03:05.080Z,99693.33
2024-03-12T07:05:37.740Z,99695.71
2024-03-12T07:08:10.744Z,99697.25
2024-03-12T07:10:42.162Z,99701.70
2024-03-12T07:13:13.963Z,99701.17
2024-03-12T07:15:46.459Z,99702.71
2024-03-12T07:18:17.133Z,99705.63
2024-03-12T07:20:47.608Z,99706.81
2024-03-12T07:23:19.134Z,99709.52
2024-03-12T07:25:49.657Z,99709.52
2024-03-12T07:28:24.325Z,99713.11
2024-03-12T07:30:56.397Z,99715.36
2024-03-12T07:33:26.950Z,99717.27
2024-03-12T07:35:57.430Z,99719.69
2024-03-12T07:38:28.893Z,99721.43
2024-03-12T07:40:59.435Z,99720.41
2024-03-12T07:43:31.364Z,99720.78
2024-03-12T07:46:00.421Z,99723.70
2024-03-12T07:48:31.000Z,99725.40
2024-03-12T07:51:03.254Z,99727.27
2024-03-12T07:53:34.693Z,99728.96
2024-03-12T07:56:06.342Z,99729.80
2024-03-12T07:58:36.869Z,99730.63
2024-03-12T08:01:07.603Z,99736.42
2024-03-12T08:03:43.287Z,99733.02
2024-03-12T08:06:13.858Z,99732.34
2024-03-12T08:08:44.363Z,99733.54
2024-03-12T08:11:15.163Z,99737.82
2024-03-12T08:13:46.383Z,99738.16
2024-03-12T08:16:17.517Z,99738.83
2024-03-12T08:18:48.113Z,99741.04
2024-03-12T08:21:18.747Z,99743.58
2024-03-12T08:23:49.256Z,99744.58
2024-03-12T08:26:19.740Z,99746.24
2024-03-12T08:28:52.398Z,99748.77
2024-03-12T08:31:30.901Z,99748.91
2024-03-12T08:34:06.325Z,99751.46
2024-03-12T08:36:37.010Z,99750.60
2024-03-12T08:39:08.179Z,99750.25
2024-03-12T08:41:38.638Z,99754.18
2024-03-12T08:44:10.697Z,99755.91
2024-03-12T08:46:39.675Z,99756.07
2024-03-12T08:49:12.128Z,99759.80
2024-03-12T08:51:43.152Z,99763.90
2024-03-12T08:54:15.185Z,99765.27
2024-03-12T08:56:46.765Z,99767.48
2024-03-12T08:59:17.225Z,99771.75
2024-03-12T09:01:48.124Z,99771.58
2024-03-12T09:04:20.088Z,99776.57
2024-03-12T09:06:50.621Z,99777.59
2024-03-12T09:09:23.300Z,99780.00
2024-03-12T09:11:55.262Z,99783.08
2024-03-12T09:14:26.012Z,99784.27
2024-03-12T09:16:56.495Z,99788.71
2024-03-12T09:19:26.951Z,99785.80
2024-03-12T09:22:00.112Z,99790.60
2024-03-12T09:24:32.105Z,99789.05
2024-03-12T09:27:02.558Z,99790.11
2024-03-12T09:29:33.064Z,99788.77
2024-03-12T09:32:04.993Z,99792.56
2024-03-12T09:34:37.986Z,99795.48
2024-03-12T09:37:10.388Z,99795.30
2024-03-12T09:39:42.877Z,99799.45
2024-03-12T09:42:18.819Z,99803.58
2024-03-12T09:44:53.202Z,99802.73
2024-03-12T09:47:24.211Z,99800.67
2024-03-12T09:49:55.637Z,99801.88
2024-03-12T09:52:27.090Z,99801.39
2024-03-12T09:54:58.364Z,99804.34
2024-03-12T09:57:29.412Z,99804.72
2024-03-12T10:00:00.142Z,99808.32
2024-03-12T10:02:30.686Z,99812.27
2024-03-12T10:05:02.196Z,99814.00
2024-03-12T10:07:32.699Z,99815.71
2024-03-12T10:10:03.523Z,99817.62
2024-03-12T10:12:36.725Z,99816.96
2024-03-12T10:15:12.271Z,99816.63
2024-03-12T10:17:42.808Z,99818.16
2024-03-12T10:20:17.356Z,99819.14
2024-03-12T10:22:48.026Z,99817.92
2024-03-12T10:25:19.038Z,99817.75
2024-03-12T10:28:06.512Z,99817.54
2024-03-12T10:30:38.913Z,99819.41
2024-03-12T10:33:18.195Z,99824.38
2024-03-12T10:35:51.817Z,99825.40
2024-03-12T10:38:33.084Z,99829.67
2024-03-12T10:41:17.818Z,99834.30
2024-03-12T10:43:50.776Z,99835.66
2024-03-12T10:46:22.495Z,99838.41
2024-03-12T10:48:54.211Z,99840.17
2024-03-12T10:51:25.348Z,99837.95
2024-03-12T10:53:56.195Z,99839.52
2024-03-12T10:56:26.768Z,99840.95
2024-03-12T10:58:57.869Z,99842.70
2024-03-12T11:01:29.842Z,99844.94
2024-03-12T11:04:00.698Z,99841.00
2024-03-12T11:06:32.411Z,99843.40
2024-03-12T11:09:03.722Z,99846.14
2024-03-12T11:11:35.524Z,99841.89
2024-03-12T11:14:09.093Z,99841.45
2024-03-12T11:16:41.644Z,99844.59
2024-03-12T11:19:24.511Z,99841.23
2024-03-12T11:21:56.740Z,99840.42
2024-03-12T11:24:31.821Z,99840.27
2024-03-12T11:27:02.989Z,99840.15
2024-03-12T11:30:12.954Z,99840.34
2024-03-12T11:32:45.895Z,99842.09
2024-03-12T11:35:33.452Z,99839.52
2024-03-12T11:38:11.792Z,99842.45
2024-03-12T11:40:52.575Z,99842.63
2024-03-12T11:43:40.745Z,99839.89
2024-03-12T11:46:16.701Z,99841.10
2024-03-12T11:48:47.658Z,99840.27
2024-03-12T11:51:19.895Z,99841.66
2024-03-12T11:53:50.599Z,99844.95
2024-03-12T11:56:23.306Z,99843.77
2024-03-12T11:59:00.185Z,99847.56
2024-03-12T12:01:37.324Z,99846.05
2024-03-12T12:04:11.877Z,99846.08
2024-03-12T12:06:44.418Z,99845.36
2024-03-12T12:09:15.450Z,99846.02
2024-03-12T12:11:46.082Z,99846.20
2024-03-12T12:14:17.575Z,99845.53
2024-03-12T12:16:51.364Z,99847.77
2024-03-12T12:19:31.893Z,99846.96
2024-03-12T12:22:06.047Z,99844.77
2024-03-12T12:24:38.988Z,99845.15
2024-03-12T12:27:09.737Z,99846.21
2024-03-12T12:29:41.163Z,99847.29
2024-03-12T12:32:12.553Z,99849.02
2024-03-12T12:34:43.332Z,99849.34
2024-03-12T12:37:15.690Z,99849.86
2024-03-12T12:39:53.844Z,99851.90
2024-03-12T12:42:25.714Z,99851.88
2024-03-12T12:44:57.052Z,99852.55
2024-03-12T12:47:27.645Z,99849.77
2024-03-12T12:50:00.409Z,99852.52
2024-03-12T12:52:31.146Z,99854.60
2024-03-12T12:55:02.298Z,99852.92
2024-03-12T12:57:41.612Z,99854.02
2024-03-12T13:00:24.546Z,99856.99
2024-03-12T13:02:55.423Z,99850.88
2024-03-12T13:05:26.104Z,99852.48
2024-03-12T13:07:56.621Z,99853.55
2024-03-12T13:10:28.226Z,99852.73
2024-03-12T13:12:58.917Z,99852.95
2024-03-12T13:15:35.137Z,99851.58
2024-03-12T13:18:06.568Z,99852.77
2024-03-12T13:20:37.100Z,99854.17
2024-03-12T13:23:09.898Z,99850.58
2024-03-12T13:25:40.685Z,99854.36
2024-03-12T13:28:11.210Z,99856.08
2024-03-12T13:30:41.789Z,99860.38
2024-03-12T13:33:12.723Z,99861.41
2024-03-12T13:35:44.867Z,99856.62
2024-03-12T13:38:15.668Z,99861.42
2024-03-12T13:40:46.230Z,99863.30
2024-03-12T13:43:17.554Z,99862.79
2024-03-12T13:45:49.943Z,99865.02
2024-03-12T13:48:20.622Z,99863.30
2024-03-12T13:50:51.290Z,99862.28
2024-03-12T13:53:21.737Z,99863.66
2024-03-12T13:55:54.289Z,99864.52
2024-03-12T13:58:25.750Z,99864.01
2024-03-12T14:00:59.065Z,99866.10
2024-03-12T14:03:31.912Z,99859.95
2024-03-12T14:06:03.870Z,99860.52
2024-03-12T14:08:34.386Z,99862.23
2024-03-12T14:11:05.163Z,99862.42
2024-03-12T14:13:36.158Z,99865.70
2024-03-12T14:16:10.192Z,99867.27
2024-03-12T14:18:40.721Z,99867.10
2024-03-12T14:21:14.147Z,99869.17
2024-03-12T14:23:44.623Z,99868.15
2024-03-12T14:26:19.292Z,99872.27
2024-03-12T14:28:50.006Z,99871.08
2024-03-12T14:31:20.604Z,99871.92
2024-03-12T14:33:51.103Z,99873.80
2024-03-12T14:36:21.571Z,99877.41
2024-03-12T14:38:54.819Z,99875.34
2024-03-12T14:41:27.457Z,99876.36
2024-03-12T14:43:58.340Z,99875.84
2024-03-12T14:46:30.941Z,99878.23
2024-03-12T14:49:01.579Z,99877.89
2024-03-12T14:51:33.750Z,99874.98
2024-03-12T14:54:04.482Z,99875.84
2024-03-12T14:56:34.943Z,99875.52
2024-03-12T14:59:06.945Z,99872.45
2024-03-12T15:01:36.060Z,99871.75
2024-03-12T15:04:08.071Z,99874.48
2024-03-12T15:06:40.880Z,99876.21
2024-03-12T15:09:15.141Z,99879.65
2024-03-12T15:11:47.812Z,99882.59
2024-03-12T15:14:18.546Z,99886.71
2024-03-12T15:16:51.930Z,99886.02
2024-03-12T15:19:22.408Z,99884.83
2024-03-12T15:21:53.303Z,99888.62
2024-03-12T15:24:23.853Z,99889.65
2024-03-12T15:26:56.600Z,99892.59
2024-03-12T15:29:29.416Z,99892.76
2024-03-12T15:31:59.974Z,99894.48
2024-03-12T15:34:30.454Z,99895.69
2024-03-12T15:37:01.009Z,99897.91
2024-03-12T15:39:31.931Z,99900.54
2024-03-12T15:42:02.416Z,99907.94
2024-03-12T15:44:33.428Z,99909.16
2024-03-12T15:47:03.900Z,99912.77
2024-03-12T15:49:35.083Z,99913.80
2024-03-12T15:52:06.008Z,99914.48
2024-03-12T15:54:38.637Z,99919.13
2024-03-12T15:57:11.154Z,99924.30
2024-03-12T15:59:40.134Z,99921.05
2024-03-12T16:02:10.886Z,99924.34
2024-03-12T16:04:41.418Z,99926.59
2024-03-12T16:07:11.968Z,99930.71
2024-03-12T16:09:42.752Z,99936.02
2024-03-12T16:12:14.594Z,99936.70
2024-03-12T16:14:44.200Z,99940.14
2024-03-12T16:17:14.676Z,99942.86
2024-03-12T16:19:45.143Z,99945.07
2024-03-12T16:22:15.802Z,99948.48
2024-03-12T16:24:46.456Z,99946.75
2024-03-12T16:27:16.972Z,99950.17
2024-03-12T16:29:47.884Z,99953.95
2024-03-12T16:32:18.414Z,99952.58
2024-03-12T16:34:48.894Z,99954.96
2024-03-12T16:37:19.589Z,99957.52
2024-03-12T16:39:50.684Z,99957.34
2024-03-12T16:42:22.148Z,99956.96
2024-03-12T16:44:53.611Z,99957.98
2024-03-12T16:47:24.198Z,99957.64
2024-03-12T16:49:54.682Z,99959.33
2024-03-12T16:52:25.319Z,99958.11
2024-03-12T16:54:56.868Z,99960.14
2024-03-12T16:57:28.802Z,99959.95
2024-03-12T17:00:01.915Z,99962.00
2024-03-12T17:02:41.609Z,99957.73
2024-03-12T17:05:15.957Z,99961.89
2024-03-12T17:07:50.453Z,99960.88
2024-03-12T17:10:23.766Z,99958.15
2024-03-12T17:12:55.775Z,99960.54
2024-03-12T17:15:27.191Z,99960.56
2024-03-12T17:17:59.020Z,99962.10
2024-03-12T17:20:33.066Z,99968.63
2024-03-12T17:23:05.678Z,99966.20
2024-03-12T17:25:38.935Z,99967.92
2024-03-12T17:28:11.482Z,99965.85
2024-03-12T17:30:42.953Z,99968.58
2024-03-12T17:33:14.737Z,99972.48
2024-03-12T17:35:46.139Z,99973.67
2024-03-12T17:38:18.350Z,99977.08
2024-03-12T17:40:54.312Z,99980.00
2024-03-12T17:43:27.695Z,99981.03
2024-03-12T17:45:59.416Z,99980.66
2024-03-12T17:48:36.167Z,99983.23
2024-03-12T17:51:08.062Z,99984.42
2024-03-12T17:53:39.813Z,99989.89
2024-03-12T17:56:13.988Z,99990.03
2024-03-12T17:58:48.414Z,99990.86
2024-03-12T18:01:22.101Z,99993.13
2024-03-12T18:03:53.592Z,99997.59
2024-03-12T18:06:29.237Z,99997.27
2024-03-12T18:09:02.656Z,100005.67
2024-03-12T18:11:34.059Z,100007.22
2024-03-12T18:14:07.620Z,100005.34
2024-03-12T18:16:38.974Z,100006.55
2024-03-12T18:19:10.048Z,100006.52
2024-03-12T18:21:40.779Z,100006.16
2024-03-12T18:24:11.560Z,100013.52
2024-03-12T18:26:43.950Z,100013.86
2024-03-12T18:29:14.636Z,100014.89
2024-03-12T18:31:45.358Z,100012.98
2024-03-12T18:34:18.549Z,100018.95
2024-03-12T18:36:54.759Z,100020.47
2024-03-12T18:39:25.671Z,100019.92
2024-03-12T18:41:56.580Z,100023.67
2024-03-12T18:44:28.068Z,100022.46
2024-03-12T18:46:58.636Z,100025.02
2024-03-12T18:49:29.681Z,100028.09
2024-03-12T18:52:01.660Z,100029.42
2024-03-12T18:54:33.384Z,100033.87
2024-03-12T18:57:04.837Z,100032.67
2024-03-12T18:59:36.722Z,100032.84
2024-03-12T19:02:07.825Z,100038.51
2024-03-12T19:04:39.262Z,100041.39
2024-03-12T19:07:11.956Z,100040.19
2024-03-12T19:09:43.516Z,100043.44
2024-03-12T19:12:16.675Z,100045.33
2024-03-12T19:14:49.317Z,100046.70
2024-03-12T19:17:21.216Z,100046.17
2024-03-12T19:19:50.509Z,100050.78
2024-03-12T19:22:22.141Z,100049.55
2024-03-12T19:24:52.802Z,100049.87
2024-03-12T19:27:30.861Z,100047.29
2024-03-12T19:30:06.687Z,100049.17
2024-03-12T19:32:38.664Z,100047.98
2024-03-12T19:35:09.036Z,100052.10
2024-03-12T19:37:40.731Z,100057.21
2024-03-12T19:40:13.725Z,100056.33
2024-03-12T19:42:46.779Z,100054.80
2024-03-12T19:45:20.083Z,100051.70
2024-03-12T19:47:52.591Z,100054.13
2024-03-12T19:50:27.006Z,100058.95
2024-03-12T19:52:58.169Z,100062.08
2024-03-12T19:55:30.578Z,100061.75
2024-03-12T19:58:02.418Z,100065.71
2024-03-12T20:00:35.012Z,100062.98
2024-03-12T20:03:07.439Z,100062.14
2024-03-12T20:05:37.985Z,100062.30
2024-03-12T20:08:10.453Z,100066.26
2024-03-12T20:10:41.971Z,100067.95
2024-03-12T20:13:12.630Z,100068.48
2024-03-12T20:15:46.524Z,100068.31
2024-03-12T20:18:17.460Z,100068.81
2024-03-12T20:20:48.026Z,100073.95
2024-03-12T20:23:18.569Z,100072.38
2024-03-12T20:25:49.216Z,100074.41
2024-03-12T20:28:19.999Z,100073.20
2024-03-12T20:30:52.459Z,100073.35
2024-03-12T20:33:25.635Z,100068.86
2024-03-12T20:35:58.961Z,100073.31
2024-03-12T20:38:30.116Z,100070.05
2024-03-12T20:41:00.748Z,100070.77
2024-03-12T20:43:31.305Z,100072.13
2024-03-12T20:46:02.170Z,100077.45
2024-03-12T20:48:33.720Z,100073.16
2024-03-12T20:51:05.689Z,100074.70
2024-03-12T20:53:35.088Z,100075.73
2024-03-12T20:56:06.385Z,100076.56
2024-03-12T20:58:36.901Z,100076.22
2024-03-12T21:01:09.997Z,100072.95
2024-03-12T21:03:40.928Z,100072.56
2024-03-12T21:06:13.512Z,100075.80
2024-03-12T21:08:46.954Z,100076.80
2024-03-12T21:11:17.474Z,100077.98
2024-03-12T21:13:48.003Z,100083.61
2024-03-12T21:16:19.029Z,100091.30
2024-03-12T21:18:49.626Z,100094.88
2024-03-12T21:21:20.167Z,100095.39
2024-03-12T21:23:50.608Z,100098.50
2024-03-12T21:26:24.690Z,100094.55
2024-03-12T21:28:55.199Z,100095.31
2024-03-12T21:31:25.746Z,100096.73
2024-03-12T21:33:56.353Z,100102.13
2024-03-12T21:36:26.847Z,100101.91
2024-03-12T21:38:58.846Z,100098.48
2024-03-12T21:41:27.902Z,100101.89
2024-03-12T21:43:58.458Z,100101.15
2024-03-12T21:46:28.980Z,100102.19
2024-03-12T21:48:59.537Z,100104.95
2024-03-12T21:51:31.012Z,100106.34
2024-03-12T21:54:01.477Z,100102.75
2024-03-12T21:56:32.260Z,100106.00
2024-03-12T21:59:02.761Z,100106.19
2024-03-12T22:01:33.339Z,100107.05
2024-03-12T22:04:04.345Z,100103.45
2024-03-12T22:06:34.866Z,100108.08
2024-03-12T22:09:05.419Z,100107.55
2024-03-12T22:11:35.956Z,100109.75
2024-03-12T22:14:06.515Z,100112.11
2024-03-12T22:16:39.335Z,100110.17
2024-03-12T22:19:10.014Z,100113.73
2024-03-12T22:21:45.533Z,100114.54
2024-03-12T22:24:23.227Z,100116.71
2024-03-12T22:26:54.688Z,100116.52
2024-03-12T22:29:25.372Z,100120.63
2024-03-12T22:31:55.989Z,100120.61
2024-03-12T22:34:26.514Z,100121.27
2024-03-12T22:36:57.316Z,100123.31
2024-03-12T22:39:28.893Z,100130.70
2024-03-12T22:42:00.344Z,100131.57
2024-03-12T22:44:31.849Z,100132.79
2024-03-12T22:47:08.125Z,100134.15
2024-03-12T22:49:44.248Z,100132.96
2024-03-12T22:52:15.508Z,100133.15
2024-03-12T22:54:46.514Z,100132.66
2024-03-12T22:57:17.884Z,100131.30
2024-03-12T22:59:52.575Z,100136.09
2024-03-12T23:02:24.697Z,100134.71
2024-03-12T23:04:55.715Z,100137.46
2024-03-12T23:07:28.441Z,100139.55
2024-03-12T23:10:00.058Z,100145.36
2024-03-12T23:12:30.590Z,100140.70
2024-03-12T23:15:02.115Z,100139.67
2024-03-12T23:17:32.865Z,100142.23
2024-03-12T23:20:03.395Z,100138.95
2024-03-12T23:22:34.109Z,100137.23
2024-03-12T23:25:07.002Z,100138.45
2024-03-12T23:27:38.542Z,100142.40
2024-03-12T23:30:13.923Z,100141.02
2024-03-12T23:32:44.982Z,100143.26
2024-03-12T23:35:15.635Z,100142.40
2024-03-12T23:37:46.180Z,100144.45
2024-03-12T23:40:17.095Z,100144.27
2024-03-12T23:42:48.108Z,100151.13
2024-03-12T23:45:19.781Z,100149.59
2024-03-12T23:47:51.205Z,100148.23
2024-03-12T23:50:22.068Z,100149.29
2024-03-12T23:52:52.556Z,100148.95
2024-03-12T23:55:23.191Z,100148.42
2024-03-12T23:57:55.579Z,100148.39
